createdAt,value
2022-12-29T00:00:54.623Z,1.20
2022-12-29T00:03:21.176Z,1.52
2022-12-29T00:05:55.580Z,1.50
2022-12-29T00:08:40.029Z,2.63
2022-12-29T00:11:14.849Z,1.95
2022-12-29T00:14:00.522Z,1.80
2022-12-29T00:16:27.400Z,1.58
2022-12-29T00:18:54.074Z,1.80
2022-12-29T00:21:42.416Z,1.15
2022-12-29T00:24:28.184Z,1.20
2022-12-29T00:27:22.502Z,2.10
2022-12-29T00:30:08.224Z,1.77
2022-12-29T00:32:53.310Z,1.03
2022-12-29T00:35:40.613Z,1.20
2022-12-29T00:38:27.853Z,3.72
2022-12-29T00:41:12.853Z,1.35
2022-12-29T00:43:57.953Z,0.80
2022-12-29T00:46:24.472Z,1.57
2022-12-29T00:49:09.614Z,1.67
2022-12-29T00:51:36.039Z,1.73
2022-12-29T00:54:02.561Z,0.70
2022-12-29T00:56:29.042Z,0.95
2022-12-29T00:58:55.531Z,1.67
2022-12-29T01:01:22.048Z,1.52
2022-12-29T01:03:48.610Z,1.30
2022-12-29T01:06:15.227Z,0.73
2022-12-29T01:08:41.769Z,0.80
2022-12-29T01:11:11.468Z,1.60
2022-12-29T01:13:39.232Z,1.50
2022-12-29T01:16:06.833Z,1.38
2022-12-29T01:18:34.226Z,1.83
2022-12-29T01:21:06.269Z,1.27
2022-12-29T01:23:33.611Z,0.80
2022-12-29T01:26:13.489Z,0.88
2022-12-29T01:28:41.388Z,1.05
2022-12-29T01:31:08.988Z,0.75
2022-12-29T01:33:35.771Z,0.63
2022-12-29T01:36:07.370Z,0.73
2022-12-29T01:38:35.365Z,1.45
2022-12-29T01:41:01.917Z,2.13
2022-12-29T01:43:53.061Z,2.75
2022-12-29T01:46:39.723Z,1.58
2022-12-29T01:49:17.994Z,1.10
2022-12-29T01:52:11.378Z,0.63
2022-12-29T01:54:44.863Z,1.52
2022-12-29T01:57:15.118Z,1.30
2022-12-29T01:59:46.915Z,0.90
2022-12-29T02:02:13.751Z,1.70
2022-12-29T02:04:47.163Z,0.70
2022-12-29T02:07:25.498Z,0.60
2022-12-29T02:09:53.970Z,1.08
2022-12-29T02:12:21.907Z,1.30
2022-12-29T02:14:52.294Z,1.53
2022-12-29T02:18:11.312Z,2.45
2022-12-29T02:20:59.281Z,2.22
2022-12-29T02:23:50.739Z,1.77
2022-12-29T02:26:52.762Z,1.20
2022-12-29T02:29:31.695Z,0.80
2022-12-29T02:32:20.500Z,2.75
2022-12-29T02:35:08.385Z,1.58
2022-12-29T02:38:06.377Z,1.02
2022-12-29T02:40:38.877Z,0.85
2022-12-29T02:43:25.487Z,6.20
2022-12-29T02:45:59.571Z,3.47
2022-12-29T02:48:32.363Z,0.50
2022-12-29T02:51:03.501Z,1.98
2022-12-29T02:54:11.455Z,3.10
2022-12-29T02:56:37.901Z,3.40
2022-12-29T02:59:04.482Z,1.10
2022-12-29T03:01:39.602Z,1.77
2022-12-29T03:04:33.993Z,1.15
2022-12-29T03:07:15.693Z,2.20
2022-12-29T03:10:00.466Z,0.90
2022-12-29T03:12:48.229Z,3.70
2022-12-29T03:15:42.505Z,0.77
2022-12-29T03:18:22.262Z,1.95
2022-12-29T03:20:53.809Z,0.82
2022-12-29T03:23:22.372Z,0.67
2022-12-29T03:25:53.795Z,0.32
2022-12-29T03:28:32.847Z,1.40
2022-12-29T03:31:00.384Z,0.80
2022-12-29T03:33:30.774Z,2.33
2022-12-29T03:36:02.588Z,0.80
2022-12-29T03:38:45.036Z,1.38
2022-12-29T03:41:16.372Z,3.38
2022-12-29T03:43:42.897Z,1.02
2022-12-29T03:46:09.425Z,1.27
2022-12-29T03:48:35.970Z,2.10
2022-12-29T03:51:02.376Z,1.33
2022-12-29T03:53:28.873Z,0.55
2022-12-29T03:55:55.280Z,1.00
2022-12-29T03:58:21.745Z,0.50
2022-12-29T04:00:48.146Z,1.13
2022-12-29T04:03:14.652Z,1.42
2022-12-29T04:05:41.375Z,0.65
2022-12-29T04:08:07.809Z,1.73
2022-12-29T04:10:34.326Z,1.38
2022-12-29T04:13:00.752Z,3.50
2022-12-29T04:15:27.455Z,3.00
2022-12-29T04:17:54.051Z,1.48
2022-12-29T04:20:39.345Z,2.42
2022-12-29T04:23:07.114Z,1.55
2022-12-29T04:25:34.429Z,2.73
2022-12-29T04:28:01.252Z,2.65
2022-12-29T04:30:27.803Z,1.63
2022-12-29T04:32:54.235Z,3.28
2022-12-29T04:35:20.704Z,1.95
2022-12-29T04:37:47.201Z,4.80
2022-12-29T04:40:13.740Z,4.10
2022-12-29T04:42:40.247Z,1.83
2022-12-29T04:45:07.425Z,1.38
2022-12-29T04:47:33.920Z,3.00
2022-12-29T04:50:01.187Z,2.17
2022-12-29T04:52:27.704Z,4.82
2022-12-29T04:54:54.149Z,1.63
2022-12-29T04:57:20.753Z,2.10
2022-12-29T04:59:47.237Z,2.25
2022-12-29T05:02:13.747Z,1.80
2022-12-29T05:04:41.028Z,4.90
2022-12-29T05:07:08.480Z,4.10
2022-12-29T05:09:34.895Z,5.07
2022-12-29T05:12:01.279Z,4.68
2022-12-29T05:14:27.793Z,4.83
2022-12-29T05:16:54.204Z,7.75
2022-12-29T05:19:20.746Z,3.28
2022-12-29T05:21:47.199Z,6.80
2022-12-29T05:24:13.629Z,7.15
2022-12-29T05:26:40.131Z,3.60
2022-12-29T05:29:06.588Z,6.15
2022-12-29T05:31:33.036Z,6.25
2022-12-29T05:34:00.329Z,4.57
2022-12-29T05:36:26.707Z,3.45
2022-12-29T05:38:53.179Z,3.70
2022-12-29T05:41:19.824Z,6.25
2022-12-29T05:43:46.295Z,10.38
2022-12-29T05:46:12.801Z,5.72
2022-12-29T05:48:39.280Z,7.40
2022-12-29T05:51:06.166Z,7.20
2022-12-29T05:53:32.613Z,5.45
2022-12-29T05:56:00.007Z,4.60
2022-12-29T05:58:26.397Z,7.28
2022-12-29T06:00:52.831Z,5.53
2022-12-29T06:03:19.312Z,7.17
2022-12-29T06:05:47.287Z,7.15
2022-12-29T06:08:14.193Z,3.45
2022-12-29T06:10:40.744Z,6.95
2022-12-29T06:13:09.543Z,5.22
2022-12-29T06:15:36.384Z,6.93
2022-12-29T06:18:02.889Z,2.92
2022-12-29T06:20:29.961Z,4.32
2022-12-29T06:22:56.446Z,3.92
2022-12-29T06:25:22.889Z,4.57
2022-12-29T06:27:49.382Z,5.03
2022-12-29T06:30:16.039Z,9.88
2022-12-29T06:32:42.632Z,4.15
2022-12-29T06:35:09.880Z,8.05
2022-12-29T06:37:36.470Z,5.03
2022-12-29T06:40:03.142Z,6.37
2022-12-29T06:42:29.578Z,9.57
2022-12-29T06:44:58.583Z,4.43
2022-12-29T06:47:25.047Z,4.72
2022-12-29T06:49:51.472Z,5.25
2022-12-29T06:52:17.887Z,6.10
2022-12-29T06:54:44.469Z,6.32
2022-12-29T06:57:10.932Z,7.10
2022-12-29T06:59:37.378Z,2.17
2022-12-29T07:02:04.037Z,5.30
2022-12-29T07:04:30.562Z,9.97
2022-12-29T07:06:56.992Z,6.50
2022-12-29T07:09:23.473Z,5.25
2022-12-29T07:11:49.955Z,6.75
2022-12-29T07:14:16.371Z,4.68
2022-12-29T07:16:43.056Z,4.27
2022-12-29T07:19:09.575Z,5.68
2022-12-29T07:21:35.987Z,2.05
2022-12-29T07:24:02.373Z,5.78
2022-12-29T07:26:34.375Z,2.42
2022-12-29T07:29:03.764Z,2.70
2022-12-29T07:31:30.451Z,4.20
2022-12-29T07:33:56.848Z,4.57
2022-12-29T07:36:23.363Z,4.40
2022-12-29T07:38:49.786Z,3.65
2022-12-29T07:41:16.256Z,6.13
2022-12-29T07:43:47.274Z,3.22
2022-12-29T07:46:56.636Z,4.88
2022-12-29T07:49:00.216Z,7.45
2022-12-29T07:51:26.951Z,3.30
2022-12-29T07:53:53.407Z,5.90
2022-12-29T07:56:19.894Z,3.20
2022-12-29T07:58:46.281Z,8.95
2022-12-29T08:01:12.732Z,2.90
2022-12-29T08:03:42.611Z,9.93
2022-12-29T08:06:12.580Z,5.20
2022-12-29T08:08:39.284Z,2.58
2022-12-29T08:11:05.842Z,6.03
2022-12-29T08:13:32.428Z,5.32
2022-12-29T08:15:59.768Z,5.18
2022-12-29T08:18:26.378Z,4.63
2022-12-29T08:20:55.857Z,10.30
2022-12-29T08:23:22.666Z,5.25
2022-12-29T08:26:01.211Z,6.10
2022-12-29T08:28:28.026Z,4.60
2022-12-29T08:30:58.935Z,6.03
2022-12-29T08:33:25.819Z,11.20
2022-12-29T08:35:55.179Z,7.68
2022-12-29T08:38:21.634Z,4.50
2022-12-29T08:40:48.048Z,5.22
2022-12-29T08:43:18.535Z,7.70
2022-12-29T08:45:45.168Z,6.70
2022-12-29T08:48:11.696Z,6.53
2022-12-29T08:50:38.157Z,9.75
2022-12-29T08:53:04.527Z,6.35
2022-12-29T08:55:31.023Z,5.13
2022-12-29T08:57:58.674Z,10.95
2022-12-29T09:00:25.491Z,9.27
2022-12-29T09:02:52.706Z,5.55
2022-12-29T09:05:19.324Z,6.68
2022-12-29T09:07:45.935Z,3.80
2022-12-29T09:10:12.646Z,9.30
2022-12-29T09:12:39.118Z,3.90
2022-12-29T09:15:07.035Z,7.43
2022-12-29T09:17:45.528Z,6.20
2022-12-29T09:20:17.644Z,6.23
2022-12-29T09:22:45.425Z,4.80
2022-12-29T09:25:12.455Z,5.85
2022-12-29T09:27:39.474Z,4.25
2022-12-29T09:30:09.142Z,6.72
2022-12-29T09:32:40.403Z,4.97
2022-12-29T09:35:10.457Z,3.40
2022-12-29T09:37:37.154Z,5.55
2022-12-29T09:40:04.980Z,5.20
2022-12-29T09:42:50.644Z,6.70
2022-12-29T09:45:31.682Z,4.73
2022-12-29T09:47:58.232Z,9.25
2022-12-29T09:50:34.079Z,6.30
2022-12-29T09:53:09.190Z,7.18
2022-12-29T09:55:56.750Z,3.47
2022-12-29T09:58:45.921Z,4.83
2022-12-29T10:01:27.878Z,5.53
2022-12-29T10:03:57.607Z,8.00
2022-12-29T10:07:28.980Z,3.28
2022-12-29T10:10:19.333Z,1.92
2022-12-29T10:13:04.142Z,6.63
2022-12-29T10:15:36.798Z,6.05
2022-12-29T10:18:25.302Z,4.72
2022-12-29T10:20:59.491Z,5.13
2022-12-29T10:23:44.390Z,2.63
2022-12-29T10:26:16.390Z,2.97
2022-12-29T10:28:59.329Z,5.22
2022-12-29T10:31:34.950Z,2.08
2022-12-29T10:34:14.688Z,4.97
2022-12-29T10:36:48.304Z,5.82
2022-12-29T10:39:36.233Z,2.67
2022-12-29T10:42:37.738Z,6.82
2022-12-29T10:45:06.412Z,5.82
2022-12-29T10:47:39.324Z,4.60
2022-12-29T10:50:06.397Z,3.58
2022-12-29T10:52:35.670Z,6.57
2022-12-29T10:55:06.458Z,7.57
2022-12-29T10:57:45.452Z,6.70
2022-12-29T11:00:21.601Z,8.02
2022-12-29T11:03:10.586Z,8.20
2022-12-29T11:05:46.534Z,5.10
2022-12-29T11:08:24.570Z,9.40
2022-12-29T11:11:03.845Z,5.07
2022-12-29T11:13:38.516Z,7.15
2022-12-29T11:16:06.058Z,8.40
2022-12-29T11:18:38.486Z,6.20
2022-12-29T11:21:27.069Z,5.80
2022-12-29T11:24:05.378Z,10.35
2022-12-29T11:26:34.683Z,8.20
2022-12-29T11:29:09.433Z,9.20
2022-12-29T11:31:42.882Z,5.30
2022-12-29T11:34:12.676Z,10.88
2022-12-29T11:36:39.987Z,5.63
2022-12-29T11:39:12.164Z,11.73
2022-12-29T11:41:40.429Z,10.73
2022-12-29T11:44:09.075Z,10.80
2022-12-29T11:46:39.367Z,7.65
2022-12-29T11:49:06.805Z,9.93
2022-12-29T11:51:55.984Z,5.50
2022-12-29T11:54:33.253Z,11.35
2022-12-29T11:57:11.635Z,7.37
2022-12-29T11:59:42.541Z,9.20
2022-12-29T12:02:21.226Z,11.15
2022-12-29T12:04:52.437Z,11.15
2022-12-29T12:07:35.688Z,7.80
2022-12-29T12:10:08.124Z,12.77
2022-12-29T12:12:40.694Z,10.70
2022-12-29T12:15:16.548Z,9.25
2022-12-29T12:17:54.410Z,5.35
2022-12-29T12:20:28.447Z,7.70
2022-12-29T12:23:22.322Z,5.73
2022-12-29T12:26:08.826Z,7.63
2022-12-29T12:28:47.373Z,10.60
2022-12-29T12:31:28.567Z,11.93
2022-12-29T12:34:01.493Z,10.90
2022-12-29T12:36:46.807Z,6.67
2022-12-29T12:39:20.568Z,11.70
2022-12-29T12:42:08.889Z,10.70
2022-12-29T12:44:44.426Z,7.88
2022-12-29T12:47:31.887Z,8.23
2022-12-29T12:50:16.265Z,11.13
2022-12-29T12:53:13.720Z,8.10
2022-12-29T12:56:04.673Z,6.65
2022-12-29T12:58:38.114Z,9.35
2022-12-29T13:01:34.023Z,8.65
2022-12-29T13:04:15.063Z,7.07
2022-12-29T13:07:13.609Z,13.45
2022-12-29T13:10:04.440Z,7.15
2022-12-29T13:12:30.856Z,8.82
2022-12-29T13:15:09.416Z,9.98
2022-12-29T13:17:41.215Z,7.50
2022-12-29T13:20:19.298Z,10.00
2022-12-29T13:23:10.573Z,9.45
2022-12-29T13:25:41.805Z,4.53
2022-12-29T13:28:37.395Z,7.35
2022-12-29T13:31:22.051Z,8.97
2022-12-29T13:34:05.266Z,11.05
2022-12-29T13:36:43.991Z,7.55
2022-12-29T13:39:25.721Z,6.50
2022-12-29T13:41:54.543Z,10.52
2022-12-29T13:44:44.027Z,7.17
2022-12-29T13:47:27.882Z,11.00
2022-12-29T13:49:57.117Z,8.05
2022-12-29T13:52:41.229Z,8.43
2022-12-29T13:55:27.679Z,6.45
2022-12-29T13:58:36.005Z,5.23
2022-12-29T14:01:35.101Z,9.88
2022-12-29T14:04:04.553Z,7.90
2022-12-29T14:06:32.800Z,6.40
2022-12-29T14:09:05.588Z,7.70
2022-12-29T14:11:40.937Z,7.73
2022-12-29T14:14:23.062Z,11.55
2022-12-29T14:16:50.350Z,6.43
2022-12-29T14:19:21.826Z,4.28
2022-12-29T14:22:01.413Z,3.38
2022-12-29T14:24:27.870Z,2.50
2022-12-29T14:26:54.607Z,4.03
2022-12-29T14:29:30.095Z,5.07
2022-12-29T14:31:56.698Z,4.72
2022-12-29T14:34:23.034Z,1.23
2022-12-29T14:36:59.616Z,2.67
2022-12-29T14:39:38.569Z,6.25
2022-12-29T14:42:11.014Z,2.05
2022-12-29T14:44:53.102Z,5.97
2022-12-29T14:47:35.033Z,2.00
2022-12-29T14:50:19.039Z,2.00
2022-12-29T14:53:03.580Z,1.75
2022-12-29T14:55:41.668Z,4.97
2022-12-29T14:58:15.300Z,3.15
2022-12-29T15:00:43.410Z,4.97
2022-12-29T15:03:24.411Z,4.57
2022-12-29T15:05:54.373Z,3.85
2022-12-29T15:08:25.438Z,3.33
2022-12-29T15:10:54.918Z,6.03
2022-12-29T15:13:33.675Z,5.40
2022-12-29T15:16:00.247Z,5.13
2022-12-29T15:18:31.360Z,3.17
2022-12-29T15:21:17.613Z,5.90
2022-12-29T15:23:46.333Z,4.90
2022-12-29T15:26:13.762Z,2.95
2022-12-29T15:28:46.208Z,4.10
2022-12-29T15:31:30.254Z,4.13
2022-12-29T15:34:11.107Z,4.47
2022-12-29T15:36:42.529Z,5.50
2022-12-29T15:39:38.937Z,3.65
2022-12-29T15:42:30.821Z,5.40
2022-12-29T15:45:09.323Z,4.30
2022-12-29T15:47:36.819Z,7.97
2022-12-29T15:50:21.155Z,3.53
2022-12-29T15:52:47.729Z,4.13
2022-12-29T15:55:33.958Z,4.60
2022-12-29T15:58:03.212Z,4.82
2022-12-29T16:00:35.688Z,3.92
2022-12-29T16:03:05.297Z,4.55
2022-12-29T16:05:37.852Z,2.53
2022-12-29T16:08:20.586Z,3.33
2022-12-29T16:10:47.126Z,5.47
2022-12-29T16:13:25.503Z,6.03
2022-12-29T16:16:01.386Z,5.97
2022-12-29T16:18:33.786Z,4.65
2022-12-29T16:21:00.947Z,5.03
2022-12-29T16:23:29.973Z,3.45
2022-12-29T16:25:58.660Z,6.05
2022-12-29T16:28:36.941Z,3.63
2022-12-29T16:31:15.153Z,6.20
2022-12-29T16:33:56.449Z,4.03
2022-12-29T16:36:27.442Z,4.72
2022-12-29T16:39:22.705Z,5.13
2022-12-29T16:41:50.271Z,6.10
2022-12-29T16:44:28.993Z,3.47
2022-12-29T16:47:01.375Z,2.87
2022-12-29T16:49:27.958Z,5.43
2022-12-29T16:51:56.008Z,3.97
2022-12-29T16:54:37.710Z,1.83
2022-12-29T16:57:05.057Z,4.03
2022-12-29T16:59:38.323Z,3.87
2022-12-29T17:02:15.498Z,5.75
2022-12-29T17:04:42.682Z,5.78
2022-12-29T17:07:21.381Z,5.28
2022-12-29T17:09:47.921Z,3.67
2022-12-29T17:12:23.803Z,7.87
2022-12-29T17:14:54.785Z,3.42
2022-12-29T17:17:29.453Z,6.60
2022-12-29T17:20:00.940Z,4.63
2022-12-29T17:22:28.815Z,3.58
2022-12-29T17:24:57.313Z,3.80
2022-12-29T17:27:29.625Z,6.28
2022-12-29T17:29:59.692Z,2.95
2022-12-29T17:32:26.259Z,5.57
2022-12-29T17:34:52.749Z,2.35
2022-12-29T17:37:25.311Z,8.37
2022-12-29T17:39:51.864Z,3.17
2022-12-29T17:42:19.943Z,4.45
2022-12-29T17:44:47.024Z,7.93
2022-12-29T17:47:15.770Z,4.70
2022-12-29T17:49:46.189Z,7.23
2022-12-29T17:52:14.065Z,8.00
2022-12-29T17:54:51.599Z,4.95
2022-12-29T17:57:19.816Z,5.45
2022-12-29T17:59:46.315Z,4.35
2022-12-29T18:02:25.605Z,2.27
2022-12-29T18:04:52.822Z,10.35
2022-12-29T18:07:19.568Z,8.25
2022-12-29T18:09:45.982Z,4.63
2022-12-29T18:12:37.689Z,1.92
2022-12-29T18:15:04.974Z,10.50
2022-12-29T18:17:31.402Z,7.07
2022-12-29T18:19:57.942Z,8.73
2022-12-29T18:22:28.835Z,6.15
2022-12-29T18:24:55.634Z,2.60
2022-12-29T18:27:22.613Z,8.27
2022-12-29T18:29:49.348Z,6.32
2022-12-29T18:32:17.674Z,7.65
2022-12-29T18:34:44.447Z,7.45
2022-12-29T18:37:11.640Z,7.50
2022-12-29T18:39:38.341Z,7.70
2022-12-29T18:42:06.082Z,6.72
2022-12-29T18:44:33.018Z,10.98
2022-12-29T18:47:01.091Z,7.25
2022-12-29T18:49:28.179Z,8.85
2022-12-29T18:51:54.759Z,7.73
2022-12-29T18:54:28.193Z,8.60
2022-12-29T18:56:54.824Z,7.18
2022-12-29T18:59:21.328Z,11.73
2022-12-29T19:01:48.396Z,10.75
2022-12-29T19:04:15.439Z,9.37
2022-12-29T19:06:42.599Z,7.43
2022-12-29T19:09:09.261Z,9.63
2022-12-29T19:11:35.717Z,9.93
2022-12-29T19:14:02.144Z,6.65
2022-12-29T19:16:28.611Z,9.77
2022-12-29T19:19:08.491Z,8.82
2022-12-29T19:21:36.841Z,8.38
2022-12-29T19:24:03.708Z,8.55
2022-12-29T19:26:34.380Z,8.85
2022-12-29T19:29:00.924Z,9.67
2022-12-29T19:31:27.758Z,7.18
2022-12-29T19:33:54.590Z,6.65
2022-12-29T19:36:21.403Z,13.52
2022-12-29T19:38:47.938Z,8.23
2022-12-29T19:41:14.900Z,5.20
2022-12-29T19:43:41.493Z,13.60
2022-12-29T19:46:13.267Z,17.13
2022-12-29T19:48:39.837Z,6.78
2022-12-29T19:51:09.008Z,12.30
2022-12-29T19:53:36.805Z,12.63
2022-12-29T19:56:11.112Z,14.80
2022-12-29T19:58:43.920Z,13.65
2022-12-29T20:01:16.429Z,7.95
2022-12-29T20:03:43.039Z,14.95
2022-12-29T20:06:11.126Z,8.60
2022-12-29T20:08:38.664Z,12.20
2022-12-29T20:11:08.451Z,10.18
2022-12-29T20:13:36.182Z,10.90
2022-12-29T20:16:05.244Z,11.73
2022-12-29T20:18:32.156Z,6.80
2022-12-29T20:21:03.042Z,10.43
2022-12-29T20:23:30.088Z,7.40
2022-12-29T20:25:58.386Z,5.90
2022-12-29T20:28:24.910Z,14.10
2022-12-29T20:31:01.023Z,9.57
2022-12-29T20:33:28.623Z,8.95
2022-12-29T20:35:55.182Z,8.50
2022-12-29T20:38:21.706Z,10.50
2022-12-29T20:40:48.216Z,11.40
2022-12-29T20:43:16.201Z,12.47
2022-12-29T20:45:42.975Z,15.93
2022-12-29T20:48:09.633Z,13.50
2022-12-29T20:50:36.214Z,14.88
2022-12-29T20:53:02.659Z,16.38
2022-12-29T20:55:29.092Z,12.53
2022-12-29T20:58:23.048Z,10.93
2022-12-29T21:00:42.173Z,8.27
2022-12-29T21:03:08.874Z,9.25
2022-12-29T21:05:37.078Z,8.40
2022-12-29T21:08:03.650Z,13.50
2022-12-29T21:10:30.250Z,10.82
2022-12-29T21:12:56.759Z,8.88
2022-12-29T21:15:23.312Z,11.57
2022-12-29T21:17:49.745Z,10.63
2022-12-29T21:20:29.966Z,8.60
2022-12-29T21:22:56.998Z,10.52
2022-12-29T21:25:23.549Z,9.05
2022-12-29T21:27:49.973Z,12.10
2022-12-29T21:30:16.587Z,10.25
2022-12-29T21:32:43.099Z,6.73
2022-12-29T21:35:10.027Z,11.90
2022-12-29T21:37:37.315Z,10.75
2022-12-29T21:40:05.708Z,14.43
2022-12-29T21:42:32.299Z,8.55
2022-12-29T21:45:20.793Z,6.17
2022-12-29T21:48:06.603Z,10.32
2022-12-29T21:50:33.137Z,7.03
2022-12-29T21:52:59.581Z,12.45
2022-12-29T21:55:27.774Z,7.45
2022-12-29T21:58:23.387Z,8.07
2022-12-29T22:01:12.653Z,13.57
2022-12-29T22:03:57.757Z,10.93
2022-12-29T22:06:43.041Z,12.80
2022-12-29T22:09:27.657Z,13.00
2022-12-29T22:12:12.800Z,7.93
2022-12-29T22:14:39.194Z,4.03
2022-12-29T22:17:08.251Z,7.80
2022-12-29T22:19:38.667Z,7.78
2022-12-29T22:22:05.065Z,5.55
2022-12-29T22:24:31.824Z,7.77
2022-12-29T22:26:58.205Z,8.40
2022-12-29T22:29:24.582Z,5.13
2022-12-29T22:31:50.965Z,5.93
2022-12-29T22:34:18.582Z,5.70
2022-12-29T22:36:44.985Z,4.67
2022-12-29T22:39:11.518Z,9.48
2022-12-29T22:41:37.896Z,7.32
2022-12-29T22:44:05.077Z,9.60
2022-12-29T22:46:31.584Z,7.90
2022-12-29T22:48:58.134Z,11.87
2022-12-29T22:51:24.641Z,11.20
2022-12-29T22:53:51.509Z,11.80
2022-12-29T22:56:20.908Z,10.45
2022-12-29T22:58:48.399Z,7.93
2022-12-29T23:01:16.862Z,7.60
2022-12-29T23:03:43.881Z,5.70
2022-12-29T23:06:14.861Z,10.52
2022-12-29T23:08:41.943Z,6.15
2022-12-29T23:11:10.769Z,8.93
2022-12-29T23:13:37.958Z,11.43
2022-12-29T23:16:04.598Z,13.38
2022-12-29T23:18:31.097Z,7.47
2022-12-29T23:20:57.639Z,7.70
2022-12-29T23:23:48.830Z,8.73
2022-12-29T23:26:16.954Z,7.67
2022-12-29T23:28:43.577Z,8.27
2022-12-29T23:31:10.223Z,7.93
2022-12-29T23:33:36.967Z,7.45
2022-12-29T23:36:04.342Z,7.30
2022-12-29T23:38:30.743Z,5.13
2022-12-29T23:40:57.263Z,10.73
2022-12-29T23:43:23.775Z,9.27
2022-12-29T23:45:51.177Z,5.53
2022-12-29T23:48:18.744Z,5.40
2022-12-29T23:50:45.400Z,8.13
2022-12-29T23:53:12.521Z,8.15
2022-12-29T23:55:42.421Z,8.98
2022-12-29T23:58:09.382Z,8.57
